sensor_id;sensor_type;location;lat;lon;timestamp;P1;durP1;ratioP1;P2;durP2;ratioP2
35550;SDS011;21655;46.056;13.616;2023-09-07T00:01:45;10.38;;;5.50;;
35550;SDS011;21655;46.056;13.616;2023-09-07T00:04:10;10.00;;;5.65;;
35550;SDS011;21655;46.056;13.616;2023-09-07T00:06:38;14.70;;;5.90;;
35550;SDS011;21655;46.056;13.616;2023-09-07T00:09:04;14.15;;;5.65;;
35550;SDS011;21655;46.056;13.616;2023-09-07T00:11:31;10.60;;;5.53;;
35550;SDS011;21655;46.056;13.616;2023-09-07T00:13:57;9.65;;;5.15;;
35550;SDS011;21655;46.056;13.616;2023-09-07T00:16:24;11.98;;;5.22;;
35550;SDS011;21655;46.056;13.616;2023-09-07T00:18:50;13.85;;;5.50;;
35550;SDS011;21655;46.056;13.616;2023-09-07T00:21:15;8.52;;;5.20;;
35550;SDS011;21655;46.056;13.616;2023-09-07T00:23:41;12.38;;;5.70;;
35550;SDS011;21655;46.056;13.616;2023-09-07T00:26:07;10.25;;;5.57;;
35550;SDS011;21655;46.056;13.616;2023-09-07T00:28:33;10.32;;;6.13;;
35550;SDS011;21655;46.056;13.616;2023-09-07T00:30:58;9.70;;;5.50;;
35550;SDS011;21655;46.056;13.616;2023-09-07T00:33:24;11.52;;;5.43;;
35550;SDS011;21655;46.056;13.616;2023-09-07T00:35:49;9.77;;;5.25;;
35550;SDS011;21655;46.056;13.616;2023-09-07T00:38:14;11.52;;;5.93;;
35550;SDS011;21655;46.056;13.616;2023-09-07T00:40:43;8.13;;;5.50;;
35550;SDS011;21655;46.056;13.616;2023-09-07T00:43:10;10.65;;;5.88;;
35550;SDS011;21655;46.056;13.616;2023-09-07T00:45:36;11.88;;;5.70;;
35550;SDS011;21655;46.056;13.616;2023-09-07T00:48:01;13.52;;;6.38;;
35550;SDS011;21655;46.056;13.616;2023-09-07T00:50:27;9.68;;;5.40;;
35550;SDS011;21655;46.056;13.616;2023-09-07T00:52:53;13.27;;;5.68;;
35550;SDS011;21655;46.056;13.616;2023-09-07T00:55:19;15.52;;;6.45;;
35550;SDS011;21655;46.056;13.616;2023-09-07T00:57:46;12.93;;;5.65;;
35550;SDS011;21655;46.056;13.616;2023-09-07T01:00:12;11.52;;;6.10;;
35550;SDS011;21655;46.056;13.616;2023-09-07T01:02:38;8.80;;;5.85;;
35550;SDS011;21655;46.056;13.616;2023-09-07T01:05:03;11.93;;;5.50;;
35550;SDS011;21655;46.056;13.616;2023-09-07T01:07:32;12.10;;;5.72;;
35550;SDS011;21655;46.056;13.616;2023-09-07T01:10:03;13.85;;;5.68;;
35550;SDS011;21655;46.056;13.616;2023-09-07T01:12:29;15.25;;;6.50;;
35550;SDS011;21655;46.056;13.616;2023-09-07T01:14:55;8.65;;;5.15;;
35550;SDS011;21655;46.056;13.616;2023-09-07T01:17:21;11.90;;;5.82;;
35550;SDS011;21655;46.056;13.616;2023-09-07T01:19:50;15.00;;;6.35;;
35550;SDS011;21655;46.056;13.616;2023-09-07T01:22:19;13.30;;;6.30;;
35550;SDS011;21655;46.056;13.616;2023-09-07T01:24:47;10.23;;;5.40;;
35550;SDS011;21655;46.056;13.616;2023-09-07T01:27:15;11.80;;;5.55;;
35550;SDS011;21655;46.056;13.616;2023-09-07T01:29:41;13.75;;;5.90;;
35550;SDS011;21655;46.056;13.616;2023-09-07T01:32:06;9.63;;;5.85;;
35550;SDS011;21655;46.056;13.616;2023-09-07T01:34:34;8.90;;;5.57;;
35550;SDS011;21655;46.056;13.616;2023-09-07T01:37:00;11.20;;;5.97;;
35550;SDS011;21655;46.056;13.616;2023-09-07T01:39:26;12.50;;;5.40;;
35550;SDS011;21655;46.056;13.616;2023-09-07T01:41:51;14.75;;;6.03;;
35550;SDS011;21655;46.056;13.616;2023-09-07T01:44:16;11.82;;;5.97;;
35550;SDS011;21655;46.056;13.616;2023-09-07T01:46:42;9.40;;;5.22;;
35550;SDS011;21655;46.056;13.616;2023-09-07T01:49:07;10.90;;;5.72;;
35550;SDS011;21655;46.056;13.616;2023-09-07T01:51:33;11.90;;;6.13;;
35550;SDS011;21655;46.056;13.616;2023-09-07T01:53:59;9.60;;;5.70;;
35550;SDS011;21655;46.056;13.616;2023-09-07T01:56:25;10.18;;;5.78;;
35550;SDS011;21655;46.056;13.616;2023-09-07T01:58:50;11.98;;;5.82;;
35550;SDS011;21655;46.056;13.616;2023-09-07T02:01:26;13.60;;;6.60;;
35550;SDS011;21655;46.056;13.616;2023-09-07T02:03:54;10.15;;;5.72;;
35550;SDS011;21655;46.056;13.616;2023-09-07T02:06:20;9.80;;;6.05;;
35550;SDS011;21655;46.056;13.616;2023-09-07T02:08:45;8.23;;;5.28;;
35550;SDS011;21655;46.056;13.616;2023-09-07T02:11:11;10.60;;;5.45;;
35550;SDS011;21655;46.056;13.616;2023-09-07T02:13:37;7.63;;;5.35;;
35550;SDS011;21655;46.056;13.616;2023-09-07T02:16:03;9.63;;;5.28;;
35550;SDS011;21655;46.056;13.616;2023-09-07T02:18:30;9.18;;;5.28;;
35550;SDS011;21655;46.056;13.616;2023-09-07T02:21:00;13.77;;;5.25;;
35550;SDS011;21655;46.056;13.616;2023-09-07T02:23:27;6.50;;;5.03;;
35550;SDS011;21655;46.056;13.616;2023-09-07T02:25:52;6.75;;;4.55;;
35550;SDS011;21655;46.056;13.616;2023-09-07T02:28:18;9.73;;;5.28;;
35550;SDS011;21655;46.056;13.616;2023-09-07T02:30:43;10.38;;;5.32;;
35550;SDS011;21655;46.056;13.616;2023-09-07T02:33:08;8.85;;;4.80;;
35550;SDS011;21655;46.056;13.616;2023-09-07T02:35:36;13.73;;;5.65;;
35550;SDS011;21655;46.056;13.616;2023-09-07T02:38:02;8.88;;;5.80;;
35550;SDS011;21655;46.056;13.616;2023-09-07T02:40:28;8.38;;;5.57;;
35550;SDS011;21655;46.056;13.616;2023-09-07T02:42:53;12.40;;;5.55;;
35550;SDS011;21655;46.056;13.616;2023-09-07T02:45:19;10.18;;;5.20;;
35550;SDS011;21655;46.056;13.616;2023-09-07T02:47:44;8.77;;;5.45;;
35550;SDS011;21655;46.056;13.616;2023-09-07T02:50:10;8.75;;;4.90;;
35550;SDS011;21655;46.056;13.616;2023-09-07T02:52:35;13.43;;;5.53;;
35550;SDS011;21655;46.056;13.616;2023-09-07T02:55:00;6.90;;;4.72;;
35550;SDS011;21655;46.056;13.616;2023-09-07T02:57:26;8.80;;;4.93;;
35550;SDS011;21655;46.056;13.616;2023-09-07T02:59:52;8.70;;;5.50;;
35550;SDS011;21655;46.056;13.616;2023-09-07T03:02:18;10.13;;;5.53;;
35550;SDS011;21655;46.056;13.616;2023-09-07T03:04:44;9.88;;;5.63;;
35550;SDS011;21655;46.056;13.616;2023-09-07T03:07:09;9.23;;;4.97;;
35550;SDS011;21655;46.056;13.616;2023-09-07T03:09:34;11.52;;;5.68;;
35550;SDS011;21655;46.056;13.616;2023-09-07T03:12:00;7.30;;;5.40;;
35550;SDS011;21655;46.056;13.616;2023-09-07T03:14:25;10.85;;;5.32;;
35550;SDS011;21655;46.056;13.616;2023-09-07T03:16:51;10.55;;;5.75;;
35550;SDS011;21655;46.056;13.616;2023-09-07T03:19:16;8.85;;;5.50;;
35550;SDS011;21655;46.056;13.616;2023-09-07T03:21:42;7.60;;;5.40;;
35550;SDS011;21655;46.056;13.616;2023-09-07T03:24:07;8.20;;;5.50;;
35550;SDS011;21655;46.056;13.616;2023-09-07T03:26:33;12.02;;;5.65;;
35550;SDS011;21655;46.056;13.616;2023-09-07T03:28:58;7.00;;;5.18;;
35550;SDS011;21655;46.056;13.616;2023-09-07T03:31:24;7.05;;;5.35;;
35550;SDS011;21655;46.056;13.616;2023-09-07T03:33:49;9.52;;;5.20;;
35550;SDS011;21655;46.056;13.616;2023-09-07T03:36:15;8.77;;;5.15;;
35550;SDS011;21655;46.056;13.616;2023-09-07T03:38:40;6.68;;;5.00;;
35550;SDS011;21655;46.056;13.616;2023-09-07T03:41:07;7.15;;;4.88;;
35550;SDS011;21655;46.056;13.616;2023-09-07T03:43:32;9.95;;;5.35;;
35550;SDS011;21655;46.056;13.616;2023-09-07T03:45:58;8.65;;;5.32;;
35550;SDS011;21655;46.056;13.616;2023-09-07T03:48:23;8.15;;;5.47;;
35550;SDS011;21655;46.056;13.616;2023-09-07T03:50:49;7.18;;;4.70;;
35550;SDS011;21655;46.056;13.616;2023-09-07T03:53:14;8.05;;;5.22;;
35550;SDS011;21655;46.056;13.616;2023-09-07T03:55:44;8.55;;;5.57;;
35550;SDS011;21655;46.056;13.616;2023-09-07T03:58:10;9.82;;;4.90;;
35550;SDS011;21655;46.056;13.616;2023-09-07T04:00:39;7.95;;;5.85;;
35550;SDS011;21655;46.056;13.616;2023-09-07T04:03:05;10.48;;;5.72;;
35550;SDS011;21655;46.056;13.616;2023-09-07T04:05:31;8.27;;;5.10;;
35550;SDS011;21655;46.056;13.616;2023-09-07T04:07:57;10.23;;;5.35;;
35550;SDS011;21655;46.056;13.616;2023-09-07T04:10:22;10.85;;;5.55;;
35550;SDS011;21655;46.056;13.616;2023-09-07T04:12:48;9.88;;;5.47;;
35550;SDS011;21655;46.056;13.616;2023-09-07T04:15:13;9.70;;;5.53;;
35550;SDS011;21655;46.056;13.616;2023-09-07T04:17:39;6.63;;;4.85;;
35550;SDS011;21655;46.056;13.616;2023-09-07T04:20:07;7.95;;;5.00;;
35550;SDS011;21655;46.056;13.616;2023-09-07T04:22:42;6.15;;;5.00;;
35550;SDS011;21655;46.056;13.616;2023-09-07T04:25:08;7.45;;;5.10;;
35550;SDS011;21655;46.056;13.616;2023-09-07T04:27:33;6.50;;;4.95;;
35550;SDS011;21655;46.056;13.616;2023-09-07T04:29:59;10.15;;;5.20;;
35550;SDS011;21655;46.056;13.616;2023-09-07T04:32:24;10.43;;;5.50;;
35550;SDS011;21655;46.056;13.616;2023-09-07T04:34:54;9.23;;;6.00;;
35550;SDS011;21655;46.056;13.616;2023-09-07T04:37:21;9.40;;;5.30;;
35550;SDS011;21655;46.056;13.616;2023-09-07T04:39:49;8.95;;;5.45;;
35550;SDS011;21655;46.056;13.616;2023-09-07T04:42:17;7.35;;;5.20;;
35550;SDS011;21655;46.056;13.616;2023-09-07T04:44:42;9.13;;;5.55;;
35550;SDS011;21655;46.056;13.616;2023-09-07T04:47:08;8.55;;;5.18;;
35550;SDS011;21655;46.056;13.616;2023-09-07T04:49:33;10.15;;;4.72;;
35550;SDS011;21655;46.056;13.616;2023-09-07T04:51:59;7.00;;;5.15;;
35550;SDS011;21655;46.056;13.616;2023-09-07T04:54:24;8.07;;;4.80;;
35550;SDS011;21655;46.056;13.616;2023-09-07T04:56:49;10.02;;;5.03;;
35550;SDS011;21655;46.056;13.616;2023-09-07T04:59:15;8.15;;;5.22;;
35550;SDS011;21655;46.056;13.616;2023-09-07T05:01:40;5.85;;;4.43;;
35550;SDS011;21655;46.056;13.616;2023-09-07T05:04:06;7.70;;;4.30;;
35550;SDS011;21655;46.056;13.616;2023-09-07T05:06:31;9.25;;;4.90;;
35550;SDS011;21655;46.056;13.616;2023-09-07T05:09:02;13.85;;;5.35;;
35550;SDS011;21655;46.056;13.616;2023-09-07T05:11:28;8.38;;;4.93;;
35550;SDS011;21655;46.056;13.616;2023-09-07T05:13:54;9.60;;;5.18;;
35550;SDS011;21655;46.056;13.616;2023-09-07T05:16:19;7.70;;;4.97;;
35550;SDS011;21655;46.056;13.616;2023-09-07T05:18:45;7.65;;;5.45;;
35550;SDS011;21655;46.056;13.616;2023-09-07T05:21:13;6.32;;;4.45;;
35550;SDS011;21655;46.056;13.616;2023-09-07T05:23:40;8.32;;;4.80;;
35550;SDS011;21655;46.056;13.616;2023-09-07T05:26:06;6.72;;;4.78;;
35550;SDS011;21655;46.056;13.616;2023-09-07T05:28:32;8.52;;;4.65;;
35550;SDS011;21655;46.056;13.616;2023-09-07T05:30:57;8.57;;;4.82;;
35550;SDS011;21655;46.056;13.616;2023-09-07T05:33:22;7.95;;;4.85;;
35550;SDS011;21655;46.056;13.616;2023-09-07T05:35:48;7.28;;;4.93;;
35550;SDS011;21655;46.056;13.616;2023-09-07T05:38:13;10.00;;;4.85;;
35550;SDS011;21655;46.056;13.616;2023-09-07T05:40:40;8.13;;;4.95;;
35550;SDS011;21655;46.056;13.616;2023-09-07T05:43:07;8.07;;;4.97;;
35550;SDS011;21655;46.056;13.616;2023-09-07T05:45:37;7.35;;;4.68;;
35550;SDS011;21655;46.056;13.616;2023-09-07T05:48:04;8.60;;;4.82;;
35550;SDS011;21655;46.056;13.616;2023-09-07T05:50:30;6.28;;;4.40;;
35550;SDS011;21655;46.056;13.616;2023-09-07T05:52:58;5.80;;;3.60;;
35550;SDS011;21655;46.056;13.616;2023-09-07T05:55:23;9.50;;;3.70;;
35550;SDS011;21655;46.056;13.616;2023-09-07T05:57:49;5.72;;;3.35;;
35550;SDS011;21655;46.056;13.616;2023-09-07T06:00:15;4.90;;;3.65;;
35550;SDS011;21655;46.056;13.616;2023-09-07T06:02:42;4.70;;;3.22;;
35550;SDS011;21655;46.056;13.616;2023-09-07T06:05:08;6.30;;;3.50;;
35550;SDS011;21655;46.056;13.616;2023-09-07T06:07:35;10.93;;;3.47;;
35550;SDS011;21655;46.056;13.616;2023-09-07T06:10:00;5.90;;;3.25;;
35550;SDS011;21655;46.056;13.616;2023-09-07T06:12:26;7.18;;;3.42;;
35550;SDS011;21655;46.056;13.616;2023-09-07T06:14:52;7.63;;;3.30;;
35550;SDS011;21655;46.056;13.616;2023-09-07T06:17:17;7.63;;;3.20;;
35550;SDS011;21655;46.056;13.616;2023-09-07T06:19:44;8.55;;;3.33;;
35550;SDS011;21655;46.056;13.616;2023-09-07T06:22:10;7.38;;;3.22;;
35550;SDS011;21655;46.056;13.616;2023-09-07T06:24:35;13.15;;;3.20;;
35550;SDS011;21655;46.056;13.616;2023-09-07T06:27:01;6.10;;;3.10;;
